Latest Weather Observations for Moorabbin Airport

IDV60901

Issued at 7:01 am EST Sunday 23 July 2017 (issued every 10 minutes, with the page automatically refreshed every 10 minutes)

About weather observations | Map of Melbourne area stations | Latest observations for Melbourne area | Other Formats
Station Details ID: 086077 Name: MOORABBIN AIRPORT Lat: -37.98 Lon: 145.10 Height: 12.1 m
Data from the previous 72 hours. | See also: Recent months at Moorabbin Airport
Date/Time
EST
Temp
°C
App
Temp
°C
Dew
Point
°C
Rel
Hum
%
Delta-T
°C
Wind Press
QNH
hPa
Press
MSL
hPa
Rain since
9am
mm
Dir  Spd
km/h
Gust
km/h
Spd
kts
Gust
kts
23/07:00am 11.0 3.1 1.3 51 4.1 N 32 43 17 23 1011.3 1011.3 0.0
23/06:30am 11.3 4.1 1.0 49 4.3 N 28 37 15 20 1011.3 1011.3 0.0
23/06:00am 11.5 4.7 0.9 48 4.4 N 26 35 14 19 1011.2 1011.2 0.0
23/05:30am 11.2 4.7 0.6 48 4.4 N 24 33 13 18 1010.8 1010.8 0.0
23/05:00am 11.6 4.4 0.4 46 4.6 NNW 28 46 15 25 1010.8 1010.8 0.0
23/04:52am 11.9 3.3 0.4 45 4.8 N 35 54 19 29 1010.4 1010.4 0.0
23/04:30am 12.3 2.9 0.1 43 5.0 N 39 52 21 28 1010.3 1010.3 0.0
23/04:00am 12.5 3.1 0.0 42 5.2 N 39 50 21 27 1010.5 1010.5 0.0
23/03:30am 12.1 3.5 -0.1 43 5.0 N 35 52 19 28 1010.5 1010.5 0.0
23/03:11am 11.8 2.8 0.0 44 4.8 N 37 57 20 31 1010.4 1010.4 0.0
23/03:00am 11.6 2.6 0.4 46 4.6 N 37 54 20 29 1010.7 1010.7 0.0
23/02:30am 11.0 2.4 0.4 48 4.3 N 35 46 19 25 1011.3 1011.3 0.0
23/02:00am 11.6 3.0 0.4 46 4.6 N 35 50 19 27 1011.5 1011.5 0.0
23/01:46am 11.9 4.3 0.4 45 4.8 N 30 48 16 26 1011.7 1011.7 0.0
23/01:30am 11.4 3.8 0.8 48 4.4 N 30 43 16 23 1012.0 1012.0 0.0
23/01:00am 10.1 3.4 1.2 54 3.7 N 26 33 14 18 1012.5 1012.5 0.0
23/12:30am 10.2 2.7 1.3 54 3.7 N 30 41 16 22 1012.8 1012.8 0.0
23/12:00am 10.3 2.9 1.7 55 3.6 N 30 39 16 21 1013.1 1013.1 0.0
 
Date/Time
EST
Temp
°C
App
Temp
°C
Dew
Point
°C
Rel
Hum
%
Delta-T
°C
Wind Press
QNH
hPa
Press
MSL
hPa
Rain since
9am
mm
Dir  Spd
km/h
Gust
km/h
Spd
kts
Gust
kts
22/11:30pm 10.0 2.2 1.9 57 3.4 N 32 41 17 22 1013.2 1013.2 0.0
22/11:00pm 10.3 2.3 1.9 56 3.5 N 33 44 18 24 1013.3 1013.3 0.0
22/10:30pm 10.4 1.7 2.0 56 3.5 N 37 46 20 25 1013.2 1013.2 0.0
22/10:00pm 10.3 2.0 2.2 57 3.4 N 35 52 19 28 1013.3 1013.3 0.0
22/09:30pm 10.5 2.2 2.4 57 3.5 N 35 46 19 25 1013.5 1013.5 0.0
22/09:00pm 10.6 2.7 2.2 56 3.6 N 33 44 18 24 1013.6 1013.6 0.0
22/08:30pm 10.9 1.9 2.5 56 3.6 N 39 52 21 28 1013.2 1013.2 0.0
22/08:03pm 11.1 1.7 2.4 55 3.7 N 41 57 22 31 1013.6 1013.6 0.0
22/08:00pm 11.1 1.7 2.4 55 3.7 N 41 57 22 31 1013.6 1013.6 0.0
22/07:37pm 11.4 1.6 2.4 54 3.9 N 43 61 23 33 1013.5 1013.5 0.0
22/07:30pm 11.5 1.6 2.5 54 3.9 N 44 57 24 31 1013.5 1013.5 0.0
22/07:00pm 11.9 2.1 2.4 52 4.1 N 43 61 23 33 1013.5 1013.5 0.0
22/06:41pm 12.2 3.2 2.4 51 4.2 N 39 59 21 32 1013.5 1013.5 0.0
22/06:30pm 11.9 3.6 2.4 52 4.1 N 35 48 19 26 1013.4 1013.4 0.0
22/06:00pm 12.1 5.6 2.6 52 4.1 N 26 35 14 19 1013.7 1013.7 0.0
22/05:30pm 11.9 5.4 2.9 54 3.9 N 26 35 14 19 1013.8 1013.8 0.0
22/05:00pm 12.2 4.6 2.6 52 4.2 N 32 52 17 28 1013.7 1013.7 0.0
22/04:55pm 12.2 4.9 2.6 52 4.2 N 30 52 16 28 1013.7 1013.7 0.0
22/04:30pm 11.8 5.3 2.8 54 3.9 N 26 43 14 23 1013.9 1013.9 0.0
22/04:00pm 11.9 3.7 2.9 54 3.9 N 35 48 19 26 1013.4 1013.4 0.0
22/03:30pm 11.9 3.3 2.6 53 4.0 N 37 50 20 27 1013.9 1013.9 0.0
22/03:00pm 12.4 4.1 2.3 50 4.4 N 35 56 19 30 1014.2 1014.2 0.0
22/02:30pm 12.4 2.6 2.0 49 4.5 N 43 65 23 35 1014.2 1014.2 0.0
22/02:07pm 12.4 4.2 2.6 51 4.3 N 35 54 19 29 1014.8 1014.8 0.0
22/02:00pm 12.3 3.8 3.0 53 4.1 N 37 52 20 28 1015.1 1015.1 0.0
22/01:46pm 12.4 4.3 3.1 53 4.1 N 35 54 19 29 1015.1 1015.1 0.0
22/01:30pm 12.4 3.5 3.1 53 4.1 N 39 54 21 29 1015.4 1015.4 0.0
22/01:15pm 11.9 2.5 2.4 52 4.1 N 41 59 22 32 1015.3 1015.3 0.0
22/01:00pm 11.9 2.5 2.6 53 4.0 N 41 54 22 29 1015.8 1015.8 0.0
22/12:37pm 11.8 2.8 2.3 52 4.1 N 39 52 21 28 1016.7 1016.8 0.0
22/12:30pm 12.0 2.1 1.9 50 4.3 N 43 57 23 31 1016.8 1016.9 0.0
22/12:00pm 11.8 1.3 1.4 49 4.4 N 46 65 25 35 1017.7 1017.8 0.0
22/11:56am 11.7 1.2 1.4 49 4.3 N 46 65 25 35 1017.7 1017.8 0.0
22/11:30am 11.4 1.5 1.9 52 4.0 N 43 57 23 31 1018.4 1018.5 0.0
22/11:00am 11.6 2.5 2.1 52 4.1 N 39 57 21 31 1019.0 1019.1 0.0
22/10:30am 11.5 3.2 2.3 53 4.0 N 35 54 19 29 1019.6 1019.7 0.0
22/10:05am 10.5 3.1 2.1 56 3.6 N 30 50 16 27 1019.9 1020.0 0.0
22/10:00am 10.6 3.8 3.2 60 3.2 N 28 41 15 22 1020.0 1020.1 0.0
22/09:30am 10.0 2.8 3.1 62 3.0 N 30 39 16 21 1019.5 1019.6 0.0
22/09:00am 9.0 2.5 2.8 65 2.6 N 26 32 14 17 1019.8 1019.9 0.0
22/08:30am 7.9 2.5 2.6 69 2.2 N 20 24 11 13 1020.2 1020.3 0.0
22/08:00am 7.1 1.3 2.4 72 1.9 N 22 28 12 15 1020.0 1020.1 0.0
22/07:30am 6.9 1.4 2.0 71 2.0 N 20 26 11 14 1020.3 1020.4 0.0
22/07:00am 6.6 1.1 1.9 72 1.9 N 20 26 11 14 1019.8 1019.9 0.0
22/06:30am 6.8 1.6 2.3 73 1.8 N 19 22 10 12 1019.6 1019.7 0.0
22/06:00am 6.4 1.2 2.3 75 1.7 N 19 24 10 13 1019.5 1019.6 0.0
22/05:30am 6.4 1.0 2.3 75 1.7 N 20 26 11 14 1019.3 1019.4 0.0
22/05:00am 6.6 1.4 2.5 75 1.7 N 19 20 10 11 1019.5 1019.6 0.0
22/04:30am 6.8 2.0 2.5 74 1.8 N 17 20 9 11 1019.4 1019.5 0.0
22/04:00am 7.2 1.8 2.7 73 1.9 N 20 26 11 14 1019.4 1019.5 0.0
22/03:30am 6.9 2.2 3.0 76 1.6 N 17 22 9 12 1019.5 1019.6 0.0
22/03:00am 6.1 1.3 2.7 79 1.4 N 17 20 9 11 1019.8 1019.9 0.0
22/02:30am 6.2 1.5 3.2 81 1.3 N 17 22 9 12 1020.1 1020.2 0.0
22/02:00am 5.7 1.7 2.7 81 1.2 N 13 17 7 9 1020.4 1020.5 0.0
22/01:30am 6.1 1.4 3.1 81 1.2 N 17 19 9 10 1021.0 1021.1 0.0
22/01:00am 5.5 1.4 2.2 79 1.3 N 13 17 7 9 1021.2 1021.3 0.0
22/12:30am 7.2 2.5 3.3 76 1.6 N 17 20 9 11 1021.6 1021.7 0.0
22/12:00am 7.9 2.7 3.4 73 1.9 N 20 28 11 15 1021.9 1022.0 0.0
 
Date/Time
EST
Temp
°C
App
Temp
°C
Dew
Point
°C
Rel
Hum
%
Delta-T
°C
Wind Press
QNH
hPa
Press
MSL
hPa
Rain since
9am
mm
Dir  Spd
km/h
Gust
km/h
Spd
kts
Gust
kts
21/11:30pm 7.4 2.8 3.5 76 1.7 N 17 22 9 12 1022.1 1022.2 0.0
21/11:00pm 7.4 3.5 3.3 75 1.7 N 13 19 7 10 1022.6 1022.7 0.0
21/10:30pm 7.4 4.0 3.8 78 1.5 NNW 11 13 6 7 1022.5 1022.6 0.0
21/10:00pm 6.5 2.5 2.8 77 1.5 N 13 15 7 8 1022.2 1022.3 0.0
21/09:30pm 7.9 3.7 3.9 76 1.7 N 15 20 8 11 1022.3 1022.4 0.0
21/09:00pm 7.9 3.3 3.8 75 1.8 N 17 20 9 11 1022.0 1022.1 0.0
21/08:30pm 8.3 4.2 4.3 76 1.7 N 15 20 8 11 1022.0 1022.1 0.0
21/08:00pm 8.3 4.2 4.5 77 1.7 N 15 17 8 9 1021.8 1021.9 0.0
21/07:30pm 8.6 4.6 5.0 78 1.6 NNE 15 17 8 9 1021.8 1021.9 0.0
21/07:00pm 8.4 5.1 4.8 78 1.6 N 11 15 6 8 1021.7 1021.8 0.0
21/06:30pm 8.8 5.5 4.4 74 1.9 NNE 11 15 6 8 1021.5 1021.6 0.0
21/06:00pm 9.5 6.5 4.3 70 2.3 NE 9 13 5 7 1021.2 1021.3 0.0
21/05:30pm 11.1 8.2 4.8 65 2.9 NE 9 11 5 6 1021.4 1021.5 0.0
21/05:00pm 12.1 9.6 4.6 60 3.4 NNE 7 9 4 5 1021.4 1021.5 0.0
21/04:30pm 13.0 10.1 4.7 57 3.8 NNE 9 13 5 7 1021.5 1021.6 0.0
21/04:00pm 13.2 9.6 4.9 57 3.8 NE 13 15 7 8 1021.4 1021.5 0.0
21/03:30pm 13.2 10.8 5.4 59 3.6 NNE 7 11 4 6 1021.7 1021.8 0.0
21/03:00pm 12.9 10.2 5.8 62 3.3 NNE 9 15 5 8 1021.9 1022.0 0.0
21/02:30pm 12.1 9.8 5.5 64 3.1 N 7 11 4 6 1022.2 1022.3 0.0
21/02:00pm 12.7 11.6 6.7 67 2.9 ENE 2 6 1 3 1022.3 1022.4 0.0
21/01:30pm 11.3 8.7 6.0 70 2.5 NNW 9 11 5 6 1022.5 1022.6 0.0
21/01:00pm 11.3 8.5 6.8 74 2.1 NNW 11 15 6 8 1023.0 1023.1 0.0
21/12:30pm 10.8 7.9 6.6 75 2.0 N 11 17 6 9 1023.5 1023.6 0.0
21/12:00pm 10.5 7.6 6.3 75 1.9 NNE 11 15 6 8 1024.0 1024.1 0.0
21/11:30am 10.2 7.7 6.4 77 1.8 N 9 15 5 8 1024.5 1024.6 0.0
21/11:00am 9.7 7.2 6.6 81 1.4 N 9 15 5 8 1025.1 1025.2 0.0
21/10:30am 8.9 6.5 6.9 87 0.9 N 9 11 5 6 1025.0 1025.1 0.0
21/10:00am 8.5 6.2 7.4 93 0.5 NNE 9 11 5 6 1024.9 1025.0 0.0
21/09:30am 7.4 5.0 7.0 97 0.2 N 9 13 5 7 1024.8 1024.9 0.0
21/09:00am 6.3 3.7 6.2 99 0.0 NNE 9 11 5 6 1024.8 1024.9 3.4
21/08:58am 6.3 3.7 6.2 99 0.0 NNE 9 11 5 6 1024.8 1024.9 3.4
21/08:30am 5.0 2.1 4.7 98 0.1 N 9 11 5 6 1024.8 1024.9 3.4
21/08:19am 4.4 1.4 4.1 98 0.1 N 9 13 5 7 1024.7 1024.8 3.4
21/08:00am 4.0 0.5 3.6 97 0.2 N 11 13 6 7 1024.5 1024.6 3.4
21/07:30am 3.9 0.7 3.3 96 0.2 N 9 13 5 7 1024.0 1024.1 3.4
21/07:04am 3.7 -0.3 3.1 96 0.2 N 13 17 7 9 1023.6 1023.7 3.4
21/07:00am 3.5 -0.1 2.8 95 0.3 N 11 17 6 9 1023.5 1023.6 3.4
21/06:52am 3.2 -0.5 2.5 95 0.3 N 11 13 6 7 1023.4 1023.5 3.4
21/06:30am 3.9 1.1 3.2 95 0.3 NNW 7 9 4 5 1023.1 1023.2 3.4
21/06:00am 4.0 0.8 3.3 95 0.3 N 9 11 5 6 1022.7 1022.8 3.4
21/05:30am 4.2 1.1 3.5 95 0.3 N 9 13 5 7 1022.5 1022.6 3.4
21/05:00am 4.4 0.9 3.7 95 0.3 NNW 11 13 6 7 1022.3 1022.4 3.4
21/04:30am 4.6 2.1 3.7 94 0.4 N 6 9 3 5 1022.1 1022.2 3.4
21/04:00am 4.8 2.1 3.9 94 0.4 N 7 9 4 5 1022.1 1022.2 3.4
21/03:30am 4.9 1.9 3.9 93 0.4 NNE 9 11 5 6 1022.0 1022.1 3.4
21/03:00am 5.4 2.8 4.2 92 0.5 N 7 9 4 5 1022.1 1022.2 3.4
21/02:30am 6.6 3.9 5.4 92 0.5 NW 9 13 5 7 1022.0 1022.1 3.4
21/02:00am 5.8 2.9 4.4 91 0.6 N 9 11 5 6 1022.1 1022.2 3.4
21/01:30am 5.9 2.9 4.1 88 0.8 NNE 9 9 5 5 1022.1 1022.2 3.4
21/01:00am 7.8 5.1 5.8 87 0.9 N 9 13 5 7 1022.2 1022.3 3.4
21/12:30am 8.6 6.4 6.4 86 1.0 WSW 7 9 4 5 1022.2 1022.3 3.4
21/12:00am 8.9 6.8 6.5 85 1.1 SW 7 11 4 6 1022.5 1022.6 3.4
 
Date/Time
EST
Temp
°C
App
Temp
°C
Dew
Point
°C
Rel
Hum
%
Delta-T
°C
Wind Press
QNH
hPa
Press
MSL
hPa
Rain since
9am
mm
Dir  Spd
km/h
Gust
km/h
Spd
kts
Gust
kts
20/11:30pm 9.0 5.7 6.4 84 1.2 SE 13 19 7 10 1022.6 1022.7 3.4
20/11:00pm 7.6 4.4 4.9 83 1.2 N 11 13 6 7 1022.3 1022.4 3.4
20/10:30pm 8.7 5.5 5.3 79 1.5 WNW 11 13 6 7 1022.2 1022.3 3.4
20/10:00pm 10.5 7.2 6.5 76 1.9 SW 13 20 7 11 1022.2 1022.3 3.4
20/09:30pm 10.3 6.9 5.9 74 2.0 SW 13 19 7 10 1022.0 1022.1 3.4
20/09:00pm 10.2 7.6 6.0 75 1.9 SW 9 13 5 7 1021.6 1021.7 3.4
20/08:30pm 9.6 6.9 5.8 77 1.7 WSW 9 13 5 7 1021.4 1021.5 3.4
20/08:00pm 9.4 6.3 5.4 76 1.8 SW 11 13 6 7 1021.2 1021.3 3.4
20/07:30pm 9.7 6.9 5.1 73 2.1 SSW 9 15 5 8 1021.0 1021.1 3.4
20/07:00pm 9.2 5.5 4.4 72 2.1 SSW 13 20 7 11 1020.9 1021.0 3.4
20/06:30pm 9.5 5.8 4.7 72 2.1 SW 13 20 7 11 1020.6 1020.7 3.4
20/06:00pm 9.5 5.0 4.3 70 2.3 SW 17 24 9 13 1020.2 1020.3 3.4
20/05:30pm 9.5 4.6 3.9 68 2.5 SSW 19 24 10 13 1019.9 1020.0 3.4
20/05:00pm 10.5 5.0 3.8 63 2.9 SSW 22 33 12 18 1020.1 1020.2 3.4
20/04:30pm 10.1 6.3 3.8 65 2.8 SSW 13 20 7 11 1019.7 1019.8 3.4
20/04:00pm 11.2 4.9 3.7 60 3.3 SSW 26 35 14 19 1019.6 1019.7 3.4
20/03:30pm 11.1 4.3 3.2 58 3.5 SW 28 39 15 21 1019.2 1019.3 3.4
20/03:00pm 11.1 4.4 3.6 60 3.3 SSW 28 41 15 22 1018.9 1019.0 3.4
20/02:30pm 10.8 5.1 5.1 68 2.6 SW 24 33 13 18 1018.9 1019.0 3.4
20/02:00pm 10.4 4.3 5.0 69 2.4 SW 26 44 14 24 1018.4 1018.5 3.4
20/01:30pm 9.9 3.4 4.5 69 2.4 SW 28 43 15 23 1018.4 1018.5 3.4
20/01:00pm 9.5 3.0 4.7 72 2.1 SSW 28 41 15 22 1018.4 1018.5 3.4
20/12:30pm 9.8 3.4 5.4 74 2.0 SSW 28 44 15 24 1018.4 1018.5 3.2
20/12:00pm 9.3 2.8 4.7 73 2.0 SW 28 52 15 28 1018.2 1018.3 3.2
20/11:59am 9.8 3.4 5.0 72 2.2 SW 28 52 15 28 1018.3 1018.4 3.2
20/11:37am 9.3 5.0 7.1 86 1.0 W 19 26 10 14 1018.2 1018.3 3.2
20/11:30am 9.2 4.7 7.0 86 1.0 WSW 20 32 11 17 1018.4 1018.5 3.2
20/11:20am 8.8 4.2 6.4 85 1.1 WSW 20 35 11 19 1018.4 1018.5 3.0
20/11:09am 9.1 4.6 7.1 87 0.9 W 20 30 11 16 1018.2 1018.3 2.6
20/11:00am 8.6 3.2 6.4 86 1.0 WSW 24 37 13 20 1018.4 1018.5 2.6
20/10:52am 8.7 4.2 6.3 85 1.1 WSW 19 26 10 14 1018.5 1018.6 2.4
20/10:45am 9.0 4.5 6.8 86 1.0 W 20 28 11 15 1018.1 1018.2 1.6
20/10:30am 8.3 3.2 5.8 84 1.1 W 22 35 12 19 1018.3 1018.4 1.6
20/10:26am 8.5 3.4 5.8 83 1.2 W 22 32 12 17 1018.3 1018.4 1.2
20/10:00am 9.0 4.6 6.4 84 1.2 WSW 19 33 10 18 1018.0 1018.1 0.8
20/09:30am 8.7 3.3 6.3 85 1.1 W 24 46 13 25 1017.6 1017.7 0.4
20/09:00am 8.6 3.7 6.7 88 0.9 WNW 22 33 12 18 1017.1 1017.2 1.0
20/08:30am 8.7 4.7 6.8 88 0.9 WNW 17 28 9 15 1016.7 1016.8 0.6
20/08:28am 8.6 4.6 6.7 88 0.9 WNW 17 28 9 15 1016.7 1016.8 0.6
20/08:15am 8.4 3.0 6.5 88 0.9 WNW 24 35 13 19 1016.6 1016.7 0.6
20/08:00am 8.3 3.7 6.4 88 0.9 WNW 20 30 11 16 1016.6 1016.7 0.4
20/07:30am 8.2 3.6 6.3 88 0.9 WNW 20 33 11 18 1016.7 1016.8 0.4

Latest Capital City Observations: Canberra | Sydney | Melbourne | Brisbane | Adelaide | Perth | Hobart | Darwin

Other Formats:

Comma delimited format used in spreadsheet applications
http://www.bom.gov.au/fwo/IDV60901/IDV60901.94870.axf

JavaScript Object Notation format (JSON) in row-major order
http://www.bom.gov.au/fwo/IDV60901/IDV60901.94870.json